Time;durP1;ratioP1;P1;durP2;ratioP2;P2;SDS_P1;SDS_P2;PMS_P1;PMS_P2;Temp;Humidity;BMP_temperature;BMP_pressure;BME280_temperature;BME280_humidity;BME280_pressure;Samples;Min_cycle;Max_cycle;Signal;HPM_P1;HPM_P2
2023/12/13 00:00:19;;;;;;;17.25;7.63;;;;;;;;;;5081941;28;20551;-62
2023/12/13 00:02:45;;;;;;;15.68;7.95;;;;;;;;;;5075153;28;20040;-62
2023/12/13 00:05:11;;;;;;;16.83;8.82;;;;;;;;;;5070415;28;20048;-62
2023/12/13 00:07:37;;;;;;;17.67;8.77;;;;;;;;;;5071309;28;20098;-62
2023/12/13 00:10:04;;;;;;;17.20;8.52;;;;;;;;;;5065507;28;20056;-62
2023/12/13 00:12:30;;;;;;;17.33;8.40;;;;;;;;;;5073789;28;20246;-61
2023/12/13 00:14:56;;;;;;;16.77;8.52;;;;;;;;;;5101837;28;20554;-62
2023/12/13 00:17:22;;;;;;;14.55;7.80;;;;;;;;;;5096097;28;20040;-62
2023/12/13 00:19:48;;;;;;;21.95;10.13;;;;;;;;;;5097602;28;20043;-62
2023/12/13 00:22:14;;;;;;;18.73;9.43;;;;;;;;;;5087071;28;20093;-62
2023/12/13 00:24:40;;;;;;;19.52;10.27;;;;;;;;;;5093747;28;20055;-62
2023/12/13 00:27:06;;;;;;;20.75;10.98;;;;;;;;;;5080262;28;20479;-62
2023/12/13 00:29:32;;;;;;;21.00;10.48;;;;;;;;;;5084900;28;20096;-61
2023/12/13 00:31:58;;;;;;;36.13;12.60;;;;;;;;;;5074592;28;20089;-61
2023/12/13 00:34:24;;;;;;;23.35;10.35;;;;;;;;;;5078448;28;20715;-62
2023/12/13 00:36:50;;;;;;;19.38;10.32;;;;;;;;;;5084883;27;20139;-61
2023/12/13 00:39:16;;;;;;;23.92;11.30;;;;;;;;;;5070167;28;20505;-62
2023/12/13 00:41:42;;;;;;;24.33;11.55;;;;;;;;;;5070611;28;20059;-63
2023/12/13 00:44:08;;;;;;;20.25;10.05;;;;;;;;;;5070012;28;20115;-61
2023/12/13 00:46:34;;;;;;;34.10;12.10;;;;;;;;;;5099257;28;20169;-62
2023/12/13 00:49:00;;;;;;;20.75;11.07;;;;;;;;;;5098386;28;20080;-61
2023/12/13 00:51:26;;;;;;;23.00;11.68;;;;;;;;;;5093102;28;20040;-62
2023/12/13 00:53:52;;;;;;;23.73;11.38;;;;;;;;;;5084595;28;20040;-62
2023/12/13 00:56:18;;;;;;;23.75;11.70;;;;;;;;;;5081752;28;20036;-62
2023/12/13 00:58:47;;;;;;;28.45;12.25;;;;;;;;;;5093485;28;20505;-62
2023/12/13 01:01:14;;;;;;;22.15;11.05;;;;;;;;;;5072177;28;20044;-62
2023/12/13 01:03:40;;;;;;;22.00;10.95;;;;;;;;;;5073650;28;20798;-62
2023/12/13 01:06:09;;;;;;;25.63;11.40;;;;;;;;;;5066586;28;20541;-62
2023/12/13 01:08:37;;;;;;;31.55;12.63;;;;;;;;;;5067561;28;20044;-62
2023/12/13 01:11:06;;;;;;;22.63;11.32;;;;;;;;;;5065004;28;20080;-62
2023/12/13 01:13:33;;;;;;;25.65;11.43;;;;;;;;;;5062503;28;20040;-62
2023/12/13 01:15:59;;;;;;;28.17;11.63;;;;;;;;;;5097994;28;20048;-62
2023/12/13 01:18:24;;;;;;;22.42;11.57;;;;;;;;;;5097890;28;20043;-61
2023/12/13 01:20:50;;;;;;;21.92;11.95;;;;;;;;;;5089868;28;20605;-62
2023/12/13 01:23:16;;;;;;;28.10;12.68;;;;;;;;;;5093686;28;20036;-60
2023/12/13 01:25:42;;;;;;;31.63;12.25;;;;;;;;;;5087323;28;20161;-60
2023/12/13 01:28:08;;;;;;;25.52;12.93;;;;;;;;;;5091603;28;20413;-60
2023/12/13 01:30:34;;;;;;;28.48;14.05;;;;;;;;;;5077106;28;20075;-60
2023/12/13 01:33:00;;;;;;;25.25;12.70;;;;;;;;;;5085604;28;20031;-60
2023/12/13 01:35:26;;;;;;;23.17;12.38;;;;;;;;;;5071163;28;20516;-60
2023/12/13 01:37:52;;;;;;;26.52;12.38;;;;;;;;;;5076529;28;20124;-59
2023/12/13 01:40:18;;;;;;;30.02;12.70;;;;;;;;;;5065720;28;20076;-60
2023/12/13 01:42:44;;;;;;;26.55;13.45;;;;;;;;;;5080760;28;20761;-60
2023/12/13 01:45:10;;;;;;;26.77;12.45;;;;;;;;;;5063133;28;20123;-60
2023/12/13 01:47:37;;;;;;;25.02;11.88;;;;;;;;;;5061890;28;20128;-59
2023/12/13 01:50:04;;;;;;;27.10;12.57;;;;;;;;;;5072137;28;20047;-59
2023/12/13 01:52:30;;;;;;;27.55;12.52;;;;;;;;;;5095932;28;20040;-59
2023/12/13 01:54:56;;;;;;;24.08;12.50;;;;;;;;;;5075973;28;20444;-60
2023/12/13 01:57:22;;;;;;;25.63;12.43;;;;;;;;;;5098919;28;20055;-60
2023/12/13 01:59:48;;;;;;;24.17;12.00;;;;;;;;;;5082022;28;20139;-60
2023/12/13 02:02:14;;;;;;;25.95;11.85;;;;;;;;;;5081749;28;20040;-60
2023/12/13 02:04:41;;;;;;;24.60;12.05;;;;;;;;;;5083360;28;20101;-59
2023/12/13 02:07:07;;;;;;;22.25;11.45;;;;;;;;;;5096168;28;20043;-60
2023/12/13 02:09:33;;;;;;;26.73;12.18;;;;;;;;;;5085900;28;20089;-60
2023/12/13 02:11:59;;;;;;;23.35;10.63;;;;;;;;;;5098334;28;20055;-59
2023/12/13 02:14:25;;;;;;;21.15;9.13;;;;;;;;;;5089698;28;20047;-60
2023/12/13 02:16:53;;;;;;;19.88;9.15;;;;;;;;;;5086978;28;20051;-59
2023/12/13 02:19:19;;;;;;;17.48;9.23;;;;;;;;;;5091377;28;20375;-60
2023/12/13 02:21:45;;;;;;;20.15;8.38;;;;;;;;;;5095393;28;20043;-59
2023/12/13 02:24:11;;;;;;;17.23;8.25;;;;;;;;;;5093801;28;20043;-59
2023/12/13 02:26:41;;;;;;;19.42;7.53;;;;;;;;;;5087812;28;20740;-60
2023/12/13 02:29:08;;;;;;;16.52;8.43;;;;;;;;;;5087538;28;20538;-60
2023/12/13 02:31:35;;;;;;;15.40;7.28;;;;;;;;;;5081251;28;20049;-60
2023/12/13 02:34:01;;;;;;;12.60;6.88;;;;;;;;;;5079560;28;20040;-59
2023/12/13 02:36:27;;;;;;;20.95;7.72;;;;;;;;;;5078403;28;20054;-59
2023/12/13 02:38:53;;;;;;;14.00;7.10;;;;;;;;;;5071926;28;20047;-60
2023/12/13 02:41:19;;;;;;;13.60;6.70;;;;;;;;;;5092385;28;20040;-60
2023/12/13 02:43:45;;;;;;;16.73;7.00;;;;;;;;;;5089125;28;20047;-60
2023/12/13 02:46:11;;;;;;;16.08;7.15;;;;;;;;;;5085362;28;20781;-60
2023/12/13 02:48:37;;;;;;;13.77;6.75;;;;;;;;;;5079573;28;20052;-60
2023/12/13 02:51:03;;;;;;;15.52;6.80;;;;;;;;;;5080917;28;20061;-59
2023/12/13 02:53:29;;;;;;;19.63;6.85;;;;;;;;;;5071357;28;20045;-59
2023/12/13 02:55:55;;;;;;;12.93;7.18;;;;;;;;;;5074654;28;21220;-59
2023/12/13 02:58:22;;;;;;;16.20;6.70;;;;;;;;;;5066633;28;20040;-59
2023/12/13 03:00:50;;;;;;;12.57;7.00;;;;;;;;;;5070105;28;20712;-59
2023/12/13 03:03:16;;;;;;;13.65;6.70;;;;;;;;;;5064751;28;20049;-59
2023/12/13 03:05:42;;;;;;;12.50;6.68;;;;;;;;;;5064649;28;20044;-60
2023/12/13 03:08:08;;;;;;;13.20;6.47;;;;;;;;;;5072487;28;20075;-59
2023/12/13 03:10:34;;;;;;;12.30;6.82;;;;;;;;;;5081672;28;20102;-59
2023/12/13 03:13:00;;;;;;;17.08;7.22;;;;;;;;;;5099512;28;20419;-60
2023/12/13 03:15:26;;;;;;;11.75;7.03;;;;;;;;;;5095241;28;20032;-60
2023/12/13 03:17:52;;;;;;;15.32;7.30;;;;;;;;;;5091859;28;20043;-60
2023/12/13 03:20:18;;;;;;;16.00;7.32;;;;;;;;;;5089877;28;20039;-60
2023/12/13 03:22:44;;;;;;;14.40;7.43;;;;;;;;;;5083002;28;20044;-59
2023/12/13 03:25:10;;;;;;;13.43;7.00;;;;;;;;;;5085427;28;20051;-59
2023/12/13 03:27:36;;;;;;;13.93;8.05;;;;;;;;;;5074452;28;20036;-59
2023/12/13 03:30:04;;;;;;;13.48;7.38;;;;;;;;;;5079045;28;20046;-62
2023/12/13 03:32:29;;;;;;;15.55;7.20;;;;;;;;;;5068780;28;20052;-61
2023/12/13 03:34:55;;;;;;;14.90;7.00;;;;;;;;;;5069217;28;20186;-62
2023/12/13 03:37:23;;;;;;;15.68;7.72;;;;;;;;;;5064984;28;20040;-62
2023/12/13 03:39:48;;;;;;;20.48;8.13;;;;;;;;;;5095530;28;20044;-62
2023/12/13 03:42:15;;;;;;;12.95;7.07;;;;;;;;;;5100919;28;20673;-62
2023/12/13 03:44:41;;;;;;;15.65;7.15;;;;;;;;;;5093460;28;20036;-62
2023/12/13 03:47:07;;;;;;;16.85;7.40;;;;;;;;;;5097104;28;20559;-62
2023/12/13 03:49:33;;;;;;;15.30;7.32;;;;;;;;;;5086172;28;20072;-61
2023/12/13 03:51:59;;;;;;;16.38;8.10;;;;;;;;;;5089042;28;20058;-62
2023/12/13 03:54:25;;;;;;;14.57;7.40;;;;;;;;;;5082140;28;20052;-62
2023/12/13 03:56:51;;;;;;;18.08;7.25;;;;;;;;;;5082087;28;20062;-61
2023/12/13 03:59:17;;;;;;;12.80;7.38;;;;;;;;;;5077258;28;20052;-62
2023/12/13 04:01:43;;;;;;;17.80;7.68;;;;;;;;;;5083544;28;20036;-62
2023/12/13 04:04:09;;;;;;;15.88;8.13;;;;;;;;;;5078978;28;20117;-62
2023/12/13 04:06:35;;;;;;;15.20;7.90;;;;;;;;;;5069375;28;20747;-62
2023/12/13 04:09:01;;;;;;;18.10;7.30;;;;;;;;;;5071048;28;20040;-62
2023/12/13 04:11:27;;;;;;;15.18;7.90;;;;;;;;;;5098364;28;20059;-62
2023/12/13 04:13:53;;;;;;;15.60;8.00;;;;;;;;;;5095368;28;20047;-61
2023/12/13 04:16:19;;;;;;;18.33;8.32;;;;;;;;;;5094236;28;20050;-62
2023/12/13 04:18:45;;;;;;;18.17;8.98;;;;;;;;;;5090811;28;20073;-61
2023/12/13 04:21:11;;;;;;;17.38;8.75;;;;;;;;;;5084534;28;20047;-62
2023/12/13 04:23:37;;;;;;;18.83;9.10;;;;;;;;;;5086450;28;20134;-61
2023/12/13 04:26:03;;;;;;;19.50;9.05;;;;;;;;;;5076350;28;20095;-62
2023/12/13 04:28:29;;;;;;;17.98;9.25;;;;;;;;;;5080743;28;20040;-62
2023/12/13 04:30:55;;;;;;;16.38;9.10;;;;;;;;;;5068870;28;20053;-62
2023/12/13 04:33:21;;;;;;;17.88;8.10;;;;;;;;;;5075117;28;20035;-62
2023/12/13 04:35:47;;;;;;;17.98;9.70;;;;;;;;;;5065529;28;20489;-61
2023/12/13 04:38:13;;;;;;;21.80;10.40;;;;;;;;;;5069808;28;20040;-62
2023/12/13 04:40:40;;;;;;;17.50;9.27;;;;;;;;;;5089984;28;20047;-62
2023/12/13 04:43:06;;;;;;;17.92;9.02;;;;;;;;;;5088993;28;20119;-62
2023/12/13 04:45:32;;;;;;;17.10;9.50;;;;;;;;;;5092428;28;20530;-61
2023/12/13 04:47:58;;;;;;;20.75;10.15;;;;;;;;;;5080777;28;20041;-62
2023/12/13 04:50:24;;;;;;;26.13;10.55;;;;;;;;;;5087869;28;20116;-61
2023/12/13 04:52:50;;;;;;;21.65;9.45;;;;;;;;;;5074884;28;20133;-62
2023/12/13 04:55:16;;;;;;;17.52;9.88;;;;;;;;;;5080504;28;20717;-62
2023/12/13 04:57:42;;;;;;;22.75;11.38;;;;;;;;;;5071233;28;20052;-62
2023/12/13 05:00:08;;;;;;;21.63;10.77;;;;;;;;;;5072103;28;20074;-62
2023/12/13 05:02:34;;;;;;;19.63;10.25;;;;;;;;;;5078618;28;20125;-62
2023/12/13 05:05:00;;;;;;;18.63;10.52;;;;;;;;;;5069365;28;20490;-62
2023/12/13 05:07:28;;;;;;;19.42;10.57;;;;;;;;;;5075337;28;20040;-63
2023/12/13 05:09:55;;;;;;;25.08;10.48;;;;;;;;;;5080139;28;20052;-62
2023/12/13 05:12:21;;;;;;;21.55;10.55;;;;;;;;;;5090532;28;20043;-62
2023/12/13 05:14:47;;;;;;;22.23;10.35;;;;;;;;;;5096713;28;20047;-62
2023/12/13 05:17:13;;;;;;;21.17;10.73;;;;;;;;;;5089172;28;20041;-62
2023/12/13 05:19:39;;;;;;;23.23;11.48;;;;;;;;;;5087208;28;20038;-62
2023/12/13 05:22:06;;;;;;;22.02;10.23;;;;;;;;;;5084119;28;20087;-62
2023/12/13 05:24:32;;;;;;;20.70;10.70;;;;;;;;;;5080933;28;20036;-62
2023/12/13 05:26:58;;;;;;;22.58;10.45;;;;;;;;;;5078024;28;20123;-62
2023/12/13 05:29:24;;;;;;;17.63;9.85;;;;;;;;;;5072453;28;20128;-62
2023/12/13 05:31:50;;;;;;;19.23;10.32;;;;;;;;;;5072291;28;20036;-62
2023/12/13 05:34:16;;;;;;;20.25;10.68;;;;;;;;;;5065578;28;20044;-62
2023/12/13 05:36:42;;;;;;;24.95;11.98;;;;;;;;;;5065983;28;20032;-62
2023/12/13 05:39:08;;;;;;;20.80;11.10;;;;;;;;;;5084003;28;20085;-62
2023/12/13 05:41:34;;;;;;;23.08;11.35;;;;;;;;;;5097427;28;20481;-62
2023/12/13 05:44:00;;;;;;;24.77;10.57;;;;;;;;;;5098691;28;20062;-62
2023/12/13 05:46:26;;;;;;;24.38;12.25;;;;;;;;;;5091924;28;20556;-64
2023/12/13 05:48:53;;;;;;;20.98;10.73;;;;;;;;;;5080240;28;20055;-60
2023/12/13 05:51:19;;;;;;;22.23;11.07;;;;;;;;;;5084270;28;20052;-60
2023/12/13 05:53:45;;;;;;;22.98;11.90;;;;;;;;;;5087963;28;20099;-60
2023/12/13 05:56:14;;;;;;;24.38;11.25;;;;;;;;;;5082323;28;20040;-60
2023/12/13 05:58:40;;;;;;;22.75;11.65;;;;;;;;;;5083456;28;20071;-60
2023/12/13 06:01:06;;;;;;;21.20;11.52;;;;;;;;;;5078882;28;20064;-60
2023/12/13 06:03:32;;;;;;;20.25;11.20;;;;;;;;;;5079156;28;20044;-60
2023/12/13 06:05:58;;;;;;;21.30;11.30;;;;;;;;;;5071991;28;20410;-60
2023/12/13 06:08:24;;;;;;;23.98;10.77;;;;;;;;;;5076304;28;20127;-60
2023/12/13 06:10:50;;;;;;;26.63;12.07;;;;;;;;;;5078922;28;20063;-60
2023/12/13 06:13:17;;;;;;;24.23;12.10;;;;;;;;;;5083137;28;20066;-61
2023/12/13 06:15:44;;;;;;;29.98;14.35;;;;;;;;;;5077249;28;20040;-61
2023/12/13 06:18:10;;;;;;;24.08;11.02;;;;;;;;;;5071252;28;20090;-61
2023/12/13 06:20:36;;;;;;;25.52;13.02;;;;;;;;;;5074929;28;20072;-61
2023/12/13 06:23:02;;;;;;;19.83;11.00;;;;;;;;;;5070845;28;20464;-61
2023/12/13 06:25:28;;;;;;;26.80;12.18;;;;;;;;;;5098107;28;20118;-61
2023/12/13 06:27:54;;;;;;;20.13;11.45;;;;;;;;;;5080563;28;20072;-61
2023/12/13 06:30:21;;;;;;;25.10;12.02;;;;;;;;;;5073378;28;20036;-61
2023/12/13 06:32:47;;;;;;;24.52;12.57;;;;;;;;;;5076736;28;20033;-61
2023/12/13 06:35:14;;;;;;;16.80;7.90;;;;;;;;;;5085359;28;20036;-61
2023/12/13 06:37:40;;;;;;;25.83;12.45;;;;;;;;;;5066599;28;20060;-62
2023/12/13 06:40:07;;;;;;;25.95;11.48;;;;;;;;;;5077429;28;20104;-62
2023/12/13 06:42:32;;;;;;;27.83;13.60;;;;;;;;;;5063019;28;20085;-61
2023/12/13 06:44:58;;;;;;;23.95;11.68;;;;;;;;;;5074511;28;20625;-61
2023/12/13 06:47:24;;;;;;;22.75;11.30;;;;;;;;;;5079448;28;20036;-61
2023/12/13 06:49:50;;;;;;;24.50;12.35;;;;;;;;;;5079374;28;20036;-60
2023/12/13 06:52:16;;;;;;;24.13;12.00;;;;;;;;;;5067578;28;20040;-60
2023/12/13 06:54:42;;;;;;;26.70;12.02;;;;;;;;;;5087407;28;20055;-60
2023/12/13 06:57:09;;;;;;;26.20;11.40;;;;;;;;;;5087855;28;20040;-60
2023/12/13 06:59:35;;;;;;;20.75;11.77;;;;;;;;;;5075402;28;20126;-61
2023/12/13 07:02:01;;;;;;;23.42;12.00;;;;;;;;;;5083184;28;20047;-60
2023/12/13 07:04:27;;;;;;;21.55;11.70;;;;;;;;;;5087560;28;20043;-62
2023/12/13 07:06:54;;;;;;;24.30;12.63;;;;;;;;;;5079604;28;20055;-60
2023/12/13 07:09:20;;;;;;;23.85;11.68;;;;;;;;;;5085600;28;20100;-60
2023/12/13 07:11:46;;;;;;;26.25;11.65;;;;;;;;;;5090859;28;20051;-59
2023/12/13 07:14:15;;;;;;;25.58;12.38;;;;;;;;;;5086214;28;20663;-60
2023/12/13 07:16:43;;;;;;;23.92;12.30;;;;;;;;;;5092338;28;20185;-60
2023/12/13 07:19:09;;;;;;;21.02;10.82;;;;;;;;;;5077851;28;20037;-60
2023/12/13 07:21:35;;;;;;;22.02;12.13;;;;;;;;;;5085833;28;20142;-60
2023/12/13 07:24:01;;;;;;;22.27;11.60;;;;;;;;;;5073381;28;20048;-60
2023/12/13 07:26:27;;;;;;;25.13;12.40;;;;;;;;;;5078033;28;20051;-60
2023/12/13 07:28:53;;;;;;;23.67;11.73;;;;;;;;;;5068370;28;20047;-60
2023/12/13 07:31:19;;;;;;;27.33;12.00;;;;;;;;;;5068412;28;20469;-60
2023/12/13 07:33:45;;;;;;;23.98;11.77;;;;;;;;;;5062005;28;20130;-60
2023/12/13 07:36:12;;;;;;;26.58;12.02;;;;;;;;;;5089393;28;20104;-60
2023/12/13 07:38:41;;;;;;;26.90;11.63;;;;;;;;;;5097413;28;20470;-60
2023/12/13 07:41:07;;;;;;;20.70;12.70;;;;;;;;;;5092631;28;20047;-60
2023/12/13 07:43:33;;;;;;;25.30;11.65;;;;;;;;;;5074299;28;20065;-60
2023/12/13 07:45:59;;;;;;;26.92;11.02;;;;;;;;;;5089314;28;20051;-60
2023/12/13 07:48:25;;;;;;;22.80;11.90;;;;;;;;;;5088043;28;20040;-60
2023/12/13 07:50:53;;;;;;;25.23;11.98;;;;;;;;;;5087328;28;20083;-60
2023/12/13 07:53:19;;;;;;;21.15;11.13;;;;;;;;;;5080887;28;20040;-60
2023/12/13 07:55:46;;;;;;;22.77;11.52;;;;;;;;;;5082798;28;20065;-60
2023/12/13 07:58:12;;;;;;;27.23;11.05;;;;;;;;;;5073759;28;20044;-60
2023/12/13 08:00:38;;;;;;;24.85;11.43;;;;;;;;;;5082284;28;20088;-60
2023/12/13 08:03:04;;;;;;;24.52;12.02;;;;;;;;;;5073163;28;20409;-60
2023/12/13 08:05:30;;;;;;;26.08;12.13;;;;;;;;;;5077149;28;20109;-60
2023/12/13 08:07:56;;;;;;;22.63;10.30;;;;;;;;;;5074321;28;20046;-60
2023/12/13 08:10:22;;;;;;;21.50;11.43;;;;;;;;;;5082539;28;20064;-59
2023/12/13 08:12:48;;;;;;;27.98;11.80;;;;;;;;;;5096531;28;20477;-60
2023/12/13 08:15:14;;;;;;;27.40;12.00;;;;;;;;;;5098431;28;20040;-60
2023/12/13 08:17:40;;;;;;;27.38;11.15;;;;;;;;;;5087956;28;20075;-59
2023/12/13 08:20:06;;;;;;;26.58;11.93;;;;;;;;;;5092747;28;20524;-62
2023/12/13 08:22:33;;;;;;;26.65;12.43;;;;;;;;;;5078935;28;20130;-60
2023/12/13 08:24:59;;;;;;;25.85;12.15;;;;;;;;;;5088924;28;20501;-60
2023/12/13 08:27:25;;;;;;;26.45;11.55;;;;;;;;;;5074568;28;20048;-60
2023/12/13 08:29:51;;;;;;;24.58;11.35;;;;;;;;;;5080812;28;20028;-60
2023/12/13 08:32:17;;;;;;;23.13;12.48;;;;;;;;;;5069979;28;20114;-60
2023/12/13 08:34:44;;;;;;;24.20;11.48;;;;;;;;;;5070927;28;20471;-60
2023/12/13 08:37:10;;;;;;;24.42;11.93;;;;;;;;;;5076805;28;20044;-60
2023/12/13 08:39:36;;;;;;;25.70;11.55;;;;;;;;;;5065761;28;20506;-60
2023/12/13 08:42:03;;;;;;;24.90;11.77;;;;;;;;;;5076740;28;20230;-60
2023/12/13 08:44:29;;;;;;;23.30;10.77;;;;;;;;;;5098240;28;20047;-60
2023/12/13 08:46:56;;;;;;;22.45;12.30;;;;;;;;;;5096221;28;20042;-60
2023/12/13 08:49:22;;;;;;;29.13;12.02;;;;;;;;;;5093112;28;20126;-60
2023/12/13 08:51:48;;;;;;;23.08;11.27;;;;;;;;;;5087260;28;20058;-60
2023/12/13 08:54:14;;;;;;;25.88;12.43;;;;;;;;;;5087865;28;20039;-60
2023/12/13 08:56:40;;;;;;;22.77;11.18;;;;;;;;;;5079600;28;20094;-60
2023/12/13 08:59:06;;;;;;;30.70;12.07;;;;;;;;;;5084353;28;20563;-59
2023/12/13 09:01:32;;;;;;;29.17;11.35;;;;;;;;;;5071163;28;20049;-59
2023/12/13 09:03:59;;;;;;;25.40;11.18;;;;;;;;;;5078461;28;20539;-58
2023/12/13 09:06:25;;;;;;;23.88;12.40;;;;;;;;;;5068508;28;20097;-60
2023/12/13 09:08:51;;;;;;;25.08;12.02;;;;;;;;;;5079869;28;20037;-60
2023/12/13 09:11:18;;;;;;;25.50;11.55;;;;;;;;;;5084649;28;20135;-60
2023/12/13 09:13:44;;;;;;;26.75;12.32;;;;;;;;;;5096275;28;20086;-60
2023/12/13 09:16:10;;;;;;;23.02;12.65;;;;;;;;;;5090608;28;20472;-60
2023/12/13 09:18:36;;;;;;;29.60;12.85;;;;;;;;;;5089418;28;20047;-60
2023/12/13 09:21:03;;;;;;;23.05;11.93;;;;;;;;;;5079567;28;20047;-59
2023/12/13 09:23:29;;;;;;;28.05;13.50;;;;;;;;;;5085640;28;20048;-60
2023/12/13 09:25:56;;;;;;;26.10;12.57;;;;;;;;;;5074027;28;20047;-60
2023/12/13 09:28:22;;;;;;;21.65;12.40;;;;;;;;;;5080731;28;20055;-60
2023/12/13 09:30:48;;;;;;;26.95;12.23;;;;;;;;;;5068636;28;20131;-60
2023/12/13 09:33:14;;;;;;;32.08;11.98;;;;;;;;;;5073410;28;20453;-62
2023/12/13 09:35:40;;;;;;;25.27;12.60;;;;;;;;;;5065153;28;20040;-61
2023/12/13 09:38:06;;;;;;;25.75;13.88;;;;;;;;;;5065457;28;20119;-60
2023/12/13 09:40:32;;;;;;;32.22;12.15;;;;;;;;;;5077830;28;20157;-60
2023/12/13 09:43:00;;;;;;;25.25;12.57;;;;;;;;;;5097132;28;20540;-60
2023/12/13 09:45:27;;;;;;;29.55;12.48;;;;;;;;;;5096123;28;20051;-60
2023/12/13 09:47:53;;;;;;;34.22;13.25;;;;;;;;;;5091260;28;20047;-60
2023/12/13 09:50:20;;;;;;;32.30;13.57;;;;;;;;;;5090766;28;20070;-60
2023/12/13 09:52:47;;;;;;;30.80;12.32;;;;;;;;;;5085504;28;20051;-59
2023/12/13 09:55:15;;;;;;;27.48;12.52;;;;;;;;;;5084002;28;20046;-61
2023/12/13 09:57:41;;;;;;;30.67;12.48;;;;;;;;;;5081691;28;20123;-60
2023/12/13 10:00:07;;;;;;;27.17;12.30;;;;;;;;;;5076509;28;20044;-60
2023/12/13 10:02:33;;;;;;;27.25;12.32;;;;;;;;;;5078129;28;20041;-59
2023/12/13 10:04:59;;;;;;;27.52;12.23;;;;;;;;;;5078948;28;20055;-60
2023/12/13 10:07:27;;;;;;;31.83;12.48;;;;;;;;;;5074806;28;20049;-60
2023/12/13 10:09:55;;;;;;;24.60;11.93;;;;;;;;;;5080885;28;20059;-60
2023/12/13 10:12:21;;;;;;;29.05;12.30;;;;;;;;;;5090580;28;20078;-60
2023/12/13 10:14:47;;;;;;;27.77;12.38;;;;;;;;;;5097032;28;20075;-60
2023/12/13 10:17:13;;;;;;;30.70;12.63;;;;;;;;;;5091548;28;20068;-61
2023/12/13 10:19:40;;;;;;;30.77;12.27;;;;;;;;;;5090670;28;20068;-59
2023/12/13 10:22:06;;;;;;;24.83;11.90;;;;;;;;;;5086407;28;20537;-60
2023/12/13 10:24:33;;;;;;;28.50;12.45;;;;;;;;;;5084359;28;20044;-60
2023/12/13 10:26:59;;;;;;;26.10;12.20;;;;;;;;;;5081638;28;20032;-60
2023/12/13 10:29:25;;;;;;;24.80;11.75;;;;;;;;;;5075787;28;20041;-60
2023/12/13 10:31:51;;;;;;;25.30;11.35;;;;;;;;;;5076723;28;20080;-60
2023/12/13 10:34:18;;;;;;;24.33;11.90;;;;;;;;;;5068999;28;20075;-60
2023/12/13 10:36:45;;;;;;;32.78;11.93;;;;;;;;;;5070070;28;20151;-61
2023/12/13 10:39:13;;;;;;;24.60;12.80;;;;;;;;;;5066237;28;20645;-60
2023/12/13 10:41:42;;;;;;;28.38;12.25;;;;;;;;;;5097405;28;20510;-60
2023/12/13 10:44:09;;;;;;;27.35;12.45;;;;;;;;;;5100541;28;20089;-60
2023/12/13 10:46:36;;;;;;;29.05;12.30;;;;;;;;;;5093284;28;20041;-60
2023/12/13 10:49:05;;;;;;;25.50;11.25;;;;;;;;;;5096658;28;20040;-60
2023/12/13 10:51:33;;;;;;;26.05;11.98;;;;;;;;;;5083751;28;20520;-59
2023/12/13 10:53:59;;;;;;;25.85;11.93;;;;;;;;;;5090527;28;20039;-60
2023/12/13 10:56:25;;;;;;;24.73;12.43;;;;;;;;;;5077122;28;20076;-60
2023/12/13 10:58:52;;;;;;;23.73;12.00;;;;;;;;;;5084329;28;20055;-60
2023/12/13 11:01:19;;;;;;;25.35;11.77;;;;;;;;;;5075374;28;20037;-60
2023/12/13 11:03:54;;;;;;;27.58;12.20;;;;;;;;;;5079811;28;20051;-60
2023/12/13 11:06:21;;;;;;;25.30;12.48;;;;;;;;;;5071260;28;20037;-60
2023/12/13 11:08:47;;;;;;;30.80;12.10;;;;;;;;;;5082177;28;20044;-60
2023/12/13 11:11:13;;;;;;;27.92;12.57;;;;;;;;;;5086701;28;20108;-59
2023/12/13 11:13:50;;;;;;;25.10;12.57;;;;;;;;;;5116201;27;20719;-59
2023/12/13 11:16:20;;;;;;;22.20;11.27;;;;;;;;;;5095044;28;20123;-59
2023/12/13 11:18:47;;;;;;;27.35;12.50;;;;;;;;;;5090999;28;20055;-59
2023/12/13 11:21:26;;;;;;;30.85;11.25;;;;;;;;;;5087869;28;20043;-59
2023/12/13 11:23:52;;;;;;;29.50;12.40;;;;;;;;;;5082144;28;20036;-60
2023/12/13 11:26:22;;;;;;;26.08;11.73;;;;;;;;;;5082488;28;20396;-59
2023/12/13 11:28:54;;;;;;;28.95;12.48;;;;;;;;;;5076138;28;20052;-59
2023/12/13 11:31:23;;;;;;;28.90;12.98;;;;;;;;;;5077428;28;20053;-59
2023/12/13 11:33:50;;;;;;;25.17;11.98;;;;;;;;;;5067628;28;20063;-59
2023/12/13 11:36:23;;;;;;;28.02;12.32;;;;;;;;;;5081475;28;20131;-59
2023/12/13 11:38:50;;;;;;;27.70;11.73;;;;;;;;;;5065411;28;20045;-60
2023/12/13 11:41:16;;;;;;;22.83;12.30;;;;;;;;;;5064808;28;20513;-59
2023/12/13 11:43:43;;;;;;;29.45;12.32;;;;;;;;;;5102093;28;20446;-59
2023/12/13 11:46:09;;;;;;;24.55;11.88;;;;;;;;;;5097098;28;20048;-59
2023/12/13 11:48:36;;;;;;;26.25;12.52;;;;;;;;;;5093988;28;20036;-59
2023/12/13 11:51:02;;;;;;;29.08;12.93;;;;;;;;;;5090924;28;20072;-59
2023/12/13 11:53:28;;;;;;;32.70;17.58;;;;;;;;;;5087164;28;20046;-59
2023/12/13 11:55:54;;;;;;;32.55;14.98;;;;;;;;;;5081206;28;20051;-59
2023/12/13 11:58:20;;;;;;;41.00;19.38;;;;;;;;;;5076070;28;20152;-59
2023/12/13 12:00:46;;;;;;;33.60;13.65;;;;;;;;;;5082210;28;20149;-59
2023/12/13 12:03:12;;;;;;;30.08;14.70;;;;;;;;;;5069537;28;20040;-59
2023/12/13 12:05:38;;;;;;;33.63;14.40;;;;;;;;;;5074018;28;20569;-58
2023/12/13 12:08:07;;;;;;;25.70;13.20;;;;;;;;;;5079559;28;20032;-59
2023/12/13 12:10:33;;;;;;;27.13;13.43;;;;;;;;;;5082074;28;20047;-59
2023/12/13 12:13:00;;;;;;;35.88;14.98;;;;;;;;;;5085689;28;20078;-59
2023/12/13 12:15:26;;;;;;;32.55;13.63;;;;;;;;;;5077358;28;20052;-59
2023/12/13 12:17:54;;;;;;;44.50;22.15;;;;;;;;;;5080755;28;20040;-60
2023/12/13 12:20:21;;;;;;;40.97;21.67;;;;;;;;;;5094352;28;20115;-60
2023/12/13 12:22:47;;;;;;;39.20;17.67;;;;;;;;;;5089867;28;20126;-59
2023/12/13 12:25:13;;;;;;;35.72;16.52;;;;;;;;;;5091461;28;20047;-59
2023/12/13 12:27:46;;;;;;;32.15;14.30;;;;;;;;;;5083266;28;20089;-59
2023/12/13 12:30:13;;;;;;;28.23;12.98;;;;;;;;;;5088214;28;20111;-59
2023/12/13 12:32:39;;;;;;;27.83;12.20;;;;;;;;;;5091404;27;20059;-59
2023/12/13 12:35:05;;;;;;;22.25;11.85;;;;;;;;;;5083597;28;20046;-59
2023/12/13 12:37:31;;;;;;;29.05;13.15;;;;;;;;;;5072032;28;20048;-59
2023/12/13 12:39:57;;;;;;;28.45;13.23;;;;;;;;;;5078016;28;20038;-59
2023/12/13 12:42:23;;;;;;;30.77;12.82;;;;;;;;;;5074797;28;20040;-59
2023/12/13 12:44:49;;;;;;;27.50;12.95;;;;;;;;;;5073523;28;20048;-59
2023/12/13 12:47:15;;;;;;;27.00;12.77;;;;;;;;;;5066692;28;20067;-59
2023/12/13 12:49:41;;;;;;;25.98;11.95;;;;;;;;;;5062380;28;20233;-59
2023/12/13 12:52:07;;;;;;;24.90;12.88;;;;;;;;;;5064663;28;20402;-59
2023/12/13 12:54:33;;;;;;;30.35;12.23;;;;;;;;;;5086050;28;20043;-59
2023/12/13 12:56:59;;;;;;;26.77;12.77;;;;;;;;;;5096420;28;20053;-59
2023/12/13 12:59:25;;;;;;;22.13;11.10;;;;;;;;;;5089697;28;20513;-59
2023/12/13 13:01:52;;;;;;;25.52;11.98;;;;;;;;;;5077775;28;20051;-59
2023/12/13 13:04:19;;;;;;;34.00;12.70;;;;;;;;;;5075405;28;20052;-59
2023/12/13 13:06:46;;;;;;;33.60;13.10;;;;;;;;;;5068559;28;20154;-59
2023/12/13 13:09:12;;;;;;;30.60;12.70;;;;;;;;;;5071881;28;20048;-61
2023/12/13 13:11:38;;;;;;;34.03;13.02;;;;;;;;;;5081738;28;20060;-59
2023/12/13 13:14:05;;;;;;;32.97;13.23;;;;;;;;;;5090109;28;20874;-59
2023/12/13 13:16:35;;;;;;;30.17;12.95;;;;;;;;;;5097038;28;20035;-59
2023/12/13 13:19:03;;;;;;;32.95;13.35;;;;;;;;;;5089332;28;20055;-59
2023/12/13 13:21:29;;;;;;;31.80;14.45;;;;;;;;;;5092601;28;20050;-59
2023/12/13 13:23:55;;;;;;;33.63;14.05;;;;;;;;;;5086458;28;20399;-60
2023/12/13 13:26:21;;;;;;;29.75;13.02;;;;;;;;;;5085271;28;20118;-59
2023/12/13 13:28:47;;;;;;;28.65;14.05;;;;;;;;;;5081822;28;20111;-59
2023/12/13 13:31:15;;;;;;;30.65;14.65;;;;;;;;;;5076607;28;20056;-59
2023/12/13 13:33:41;;;;;;;32.78;15.05;;;;;;;;;;5078285;28;20041;-59
2023/12/13 13:36:07;;;;;;;38.38;15.10;;;;;;;;;;5070393;28;20045;-59
2023/12/13 13:38:33;;;;;;;30.38;13.52;;;;;;;;;;5074939;28;20032;-59
2023/12/13 13:40:59;;;;;;;33.88;14.43;;;;;;;;;;5065601;28;20556;-59
2023/12/13 13:43:26;;;;;;;42.08;14.93;;;;;;;;;;5078648;28;20052;-60
2023/12/13 13:45:53;;;;;;;34.88;15.48;;;;;;;;;;5062462;28;20127;-59
2023/12/13 13:48:22;;;;;;;40.15;15.65;;;;;;;;;;5078918;28;20044;-59
2023/12/13 13:50:48;;;;;;;33.40;14.40;;;;;;;;;;5097871;28;20050;-59
2023/12/13 13:53:14;;;;;;;37.33;14.50;;;;;;;;;;5088896;28;20041;-59
2023/12/13 13:55:40;;;;;;;40.38;15.65;;;;;;;;;;5094356;28;20123;-59
2023/12/13 13:58:06;;;;;;;40.05;14.25;;;;;;;;;;5085149;28;20449;-59
2023/12/13 14:00:33;;;;;;;33.03;14.80;;;;;;;;;;5084675;28;20101;-59
2023/12/13 14:02:59;;;;;;;36.97;14.98;;;;;;;;;;5071421;28;20063;-59
2023/12/13 14:05:25;;;;;;;31.08;15.07;;;;;;;;;;5077441;28;20497;-59
2023/12/13 14:07:51;;;;;;;33.03;16.00;;;;;;;;;;5076119;28;20091;-59
2023/12/13 14:10:17;;;;;;;35.47;14.82;;;;;;;;;;5079573;28;20056;-59
2023/12/13 14:12:43;;;;;;;35.13;15.55;;;;;;;;;;5093387;28;20442;-59